Terminal Aerodrome Forecast
Issued by NWS

Home | Current Version | Previous Version | Text Only | Print | Product List | Glossary On
Versions: 1 2 3 4 5 6 7 8 9 10 11 12 13 14 15 16 17 18 19 20 21 22 23 24 25 26 27 28 29 30
000
FTUS44 KHGX 011604 AAA
TAFCXO
TAF AMD
KCXO 011604Z 0116/0212 18006KT P6SM SCT025
     FM011800 16007KT P6SM SCT050
     FM020600 17004KT 4SM BR BKN015
      TEMPO 0210/0212 1/4SM FG OVC002=

USA.gov is the U.S. government's official web portal to all federal, state and local government web resources and services.